| time (UTC) | temp C | wind direction | speed KPH | gust KPH | rain 1hr cm | rain 24hr cm | rain mn cm | humidity % | barometer mb |
| 20260510064535 | 7 | 186 | 0.0 | 1.6 | 0.03 | 0.51 | 0.03 | 96 | 1008.0 |
| 20260510063020 | 7 | 186 | 0.0 | 1.6 | 0.03 | 0.51 | 0.03 | 96 | 1008.1 |
| 20260510061504 | 7 | 186 | 0.0 | 4.8 | 0.03 | 0.51 | 0.03 | 96 | 1008.2 |
| 20260510060009 | 7 | 204 | 0.0 | 3.2 | 0.00 | 0.48 | 0.00 | 96 | 1008.4 |
| 20260510054514 | 7 | 192 | 1.6 | 4.8 | 0.00 | 0.48 | 0.00 | 96 | 1008.3 |
| 20260510053035 | 7 | 180 | 0.0 | 3.2 | 0.00 | 0.48 | 0.00 | 96 | 1008.5 |
| 20260510051504 | 7 | 306 | 0.0 | 4.8 | 0.00 | 0.48 | 0.00 | 96 | 1008.6 |
| 20260510050005 | 8 | 178 | 0.0 | 3.2 | 0.00 | 0.48 | 0.00 | 95 | 1008.4 |
| 20260510044510 | 8 | 175 | 1.6 | 8.0 | 0.00 | 0.48 | 0.00 | 96 | 1008.1 |
| 20260510043012 | 8 | 196 | 1.6 | 4.8 | 0.00 | 0.48 | 0.00 | 95 | 1008.0 |
| 20260510041527 | 8 | 165 | 1.6 | 6.4 | 0.03 | 0.48 | 0.00 | 95 | 1008.0 |
| 20260510040004 | 9 | 206 | 1.6 | 8.0 | 0.05 | 0.48 | 0.00 | 95 | 1007.6 |
| 20260510034506 | 9 | 194 | 3.2 | 11.3 | 0.08 | 0.48 | 0.48 | 95 | 1007.5 |
| 20260510033011 | 9 | 163 | 6.4 | 12.9 | 0.20 | 0.48 | 0.48 | 95 | 1007.5 |
| 20260510031523 | 9 | 165 | 3.2 | 11.3 | 0.46 | 0.46 | 0.46 | 94 | 1007.6 |
| 20260510030020 | 9 | 163 | 6.4 | 12.9 | 0.43 | 0.43 | 0.43 | 93 | 1007.0 |
| 20260510024504 | 9 | 204 | 8.0 | 19.3 | 0.41 | 0.41 | 0.41 | 92 | 1008.1 |
| 20260510023005 | 10 | 249 | 6.4 | 14.5 | 0.28 | 0.28 | 0.28 | 89 | 1008.3 |
| 20260510021514 | 11 | 308 | 6.4 | 22.5 | 0.00 | 0.00 | 0.00 | 83 | 1007.7 |
| 20260510020024 | 11 | 181 | 4.8 | 17.7 | 0.00 | 0.00 | 0.00 | 82 | 1006.5 |
| 20260510014523 | 11 | 155 | 4.8 | 17.7 | 0.00 | 0.00 | 0.00 | 81 | 1006.2 |
| 20260510013004 | 12 | 174 | 8.0 | 19.3 | 0.00 | 0.00 | 0.00 | 81 | 1006.1 |
| 20260510011509 | 12 | 155 | 6.4 | 16.1 | 0.00 | 0.00 | 0.00 | 80 | 1005.7 |
| 20260510010017 | 12 | 184 | 6.4 | 12.9 | 0.00 | 0.00 | 0.00 | 80 | 1006.0 |
| 20260510004519 | 12 | 163 | 6.4 | 16.1 | 0.00 | 0.00 | 0.00 | 79 | 1005.7 |
| 20260510003022 | 12 | 141 | 6.4 | 12.9 | 0.00 | 0.00 | 0.00 | 78 | 1005.5 |
| 20260510001507 | 12 | 174 | 6.4 | 14.5 | 0.00 | 0.00 | 0.00 | 77 | 1005.5 |
| 20260510000012 | 13 | 157 | 4.8 | 14.5 | 0.00 | 0.00 | 0.00 | 76 | 1005.5 |
| 20260509234519 | 13 | 167 | 6.4 | 12.9 | 0.00 | 0.00 | 0.00 | 75 | 1005.5 |
| 20260509233023 | 13 | 175 | 4.8 | 14.5 | 0.00 | 0.00 | 0.00 | 73 | 1005.6 |
| 20260509231523 | 14 | 192 | 3.2 | 14.5 | 0.00 | 0.00 | 0.00 | 71 | 1005.7 |
| 20260509230010 | 14 | 184 | 4.8 | 16.1 | 0.00 | 0.00 | 0.00 | 70 | 1005.4 |
| 20260509224515 | 15 | 209 | 6.4 | 12.9 | 0.00 | 0.00 | 0.00 | 69 | 1005.4 |
| 20260509223022 | 14 | 244 | 4.8 | 17.7 | 0.00 | 0.00 | 0.00 | 69 | 1005.7 |
| 20260509221525 | 15 | 201 | 11.3 | 25.7 | 0.00 | 0.00 | 0.00 | 69 | 1005.6 |
| 20260509220037 | 15 | 140 | 4.8 | 19.3 | 0.00 | 0.00 | 0.00 | 69 | 1005.6 |
| 20260509214512 | 15 | 199 | 9.7 | 20.9 | 0.00 | 0.00 | 0.00 | 67 | 1005.6 |
| 20260509213012 | 15 | 178 | 6.4 | 25.7 | 0.00 | 0.00 | 0.00 | 68 | 1005.6 |
| 20260509211507 | 15 | 147 | 11.3 | 22.5 | 0.00 | 0.00 | 0.00 | 69 | 1005.6 |
| 20260509210008 | 15 | 201 | 12.9 | 27.4 | 0.00 | 0.00 | 0.00 | 67 | 1005.7 |
| 20260509204512 | 15 | 167 | 9.7 | 27.4 | 0.00 | 0.00 | 0.00 | 67 | 1005.7 |
| 20260509203022 | 15 | 203 | 11.3 | 29.0 | 0.00 | 0.00 | 0.00 | 68 | 1006.0 |
| 20260509201506 | 15 | 238 | 9.7 | 22.5 | 0.00 | 0.00 | 0.00 | 68 | 1006.0 |
| 20260509200009 | 15 | 177 | 9.7 | 25.7 | 0.00 | 0.00 | 0.00 | 68 | 1006.2 |
| 20260509194512 | 15 | 184 | 8.0 | 32.2 | 0.00 | 0.00 | 0.00 | 69 | 1006.4 |
| 20260509193008 | 14 | 185 | 9.7 | 25.7 | 0.00 | 0.00 | 0.00 | 70 | 1006.7 |
| 20260509191510 | 15 | 282 | 11.3 | 19.3 | 0.00 | 0.00 | 0.00 | 69 | 1007.0 |
| 20260509190010 | 14 | 223 | 9.7 | 22.5 | 0.00 | 0.00 | 0.00 | 71 | 1007.2 |
| 20260509184507 | 13 | 138 | 14.5 | 25.7 | 0.00 | 0.00 | 0.00 | 72 | 1007.2 |
| 20260509183014 | 13 | 150 | 12.9 | 25.7 | 0.00 | 0.00 | 0.00 | 73 | 1007.4 |
| 20260509181511 | 13 | 202 | 9.7 | 22.5 | 0.00 | 0.00 | 0.00 | 72 | 1007.4 |
| 20260509180013 | 13 | 163 | 11.3 | 25.7 | 0.00 | 0.00 | 0.00 | 74 | 1007.6 |
| 20260509174536 | 12 | 178 | 4.8 | 20.9 | 0.00 | 0.00 | 0.00 | 77 | 1007.6 |
| 20260509173007 | 12 | 166 | 11.3 | 20.9 | 0.00 | 0.00 | 0.00 | 76 | 1007.6 |
| 20260509171510 | 11 | 128 | 9.7 | 17.7 | 0.00 | 0.00 | 0.00 | 77 | 1007.9 |
| 20260509170012 | 11 | 135 | 6.4 | 27.4 | 0.00 | 0.00 | 0.00 | 77 | 1008.1 |
| 20260509164517 | 11 | 143 | 11.3 | 24.1 | 0.00 | 0.00 | 0.00 | 77 | 1008.2 |
| 20260509163014 | 11 | 157 | 9.7 | 19.3 | 0.00 | 0.00 | 0.00 | 78 | 1008.3 |
| 20260509161521 | 11 | 155 | 11.3 | 22.5 | 0.00 | 0.00 | 0.00 | 76 | 1008.6 |
| 20260509160016 | 12 | 165 | 8.0 | 17.7 | 0.00 | 0.00 | 0.00 | 75 | 1008.7 |
| 20260509154516 | 11 | 135 | 12.9 | 20.9 | 0.00 | 0.00 | 0.00 | 76 | 1008.9 |
| 20260509153027 | 11 | 135 | 3.2 | 14.5 | 0.00 | 0.00 | 0.00 | 76 | 1009.1 |
| 20260509151518 | 11 | 161 | 6.4 | 19.3 | 0.00 | 0.00 | 0.00 | 75 | 1009.3 |
| 20260509150022 | 11 | 161 | 6.4 | 19.3 | 0.00 | 0.00 | 0.00 | 74 | 1009.2 |
| 20260509144520 | 10 | 126 | 8.0 | 20.9 | 0.00 | 0.00 | 0.00 | 75 | 1009.3 |
| 20260509143018 | 10 | 176 | 6.4 | 16.1 | 0.00 | 0.00 | 0.00 | 73 | 1009.4 |
| 20260509141517 | 9 | 160 | 8.0 | 19.3 | 0.00 | 0.00 | 0.00 | 74 | 1009.6 |
| 20260509140018 | 9 | 136 | 9.7 | 19.3 | 0.00 | 0.00 | 0.00 | 74 | 1009.7 |
| 20260509134519 | 8 | 128 | 8.0 | 19.3 | 0.00 | 0.00 | 0.00 | 73 | 1009.6 |
| 20260509133018 | 8 | 142 | 9.7 | 20.9 | 0.00 | 0.00 | 0.00 | 73 | 1009.8 |
| 20260509131523 | 8 | 217 | 6.4 | 16.1 | 0.00 | 0.00 | 0.00 | 73 | 1010.0 |
| 20260509130020 | 7 | 197 | 4.8 | 16.1 | 0.00 | 0.00 | 0.00 | 73 | 1010.0 |
| 20260509124522 | 7 | 180 | 4.8 | 17.7 | 0.00 | 0.00 | 0.00 | 72 | 1010.0 |
| 20260509123017 | 6 | 162 | 6.4 | 16.1 | 0.00 | 0.00 | 0.00 | 73 | 1010.0 |
| 20260509121504 | 6 | 171 | 4.8 | 16.1 | 0.00 | 0.00 | 0.00 | 74 | 1010.0 |
| 20260509120005 | 5 | 136 | 6.4 | 12.9 | 0.00 | 0.00 | 0.00 | 72 | 1010.2 |
| 20260509114524 | 5 | 190 | 6.4 | 17.7 | 0.00 | 0.00 | 0.00 | 72 | 1010.2 |
| 20260509113017 | 5 | 148 | 6.4 | 14.5 | 0.00 | 0.00 | 0.00 | 72 | 1010.0 |
| 20260509111524 | 4 | 151 | 8.0 | 16.1 | 0.00 | 0.00 | 0.00 | 73 | 1009.9 |
| 20260509110004 | 3 | 146 | 6.4 | 16.1 | 0.00 | 0.00 | 0.00 | 75 | 1010.0 |
| 20260509104507 | 3 | 134 | 6.4 | 14.5 | 0.00 | 0.00 | 0.00 | 76 | 1010.2 |
| 20260509103012 | 2 | 169 | 6.4 | 14.5 | 0.00 | 0.00 | 0.00 | 77 | 1010.1 |
| 20260509101526 | 2 | 157 | 8.0 | 12.9 | 0.00 | 0.00 | 0.00 | 78 | 1010.0 |
| 20260509100021 | 1 | 165 | 3.2 | 9.7 | 0.00 | 0.00 | 0.00 | 80 | 1009.9 |
| 20260509094506 | 2 | 187 | 4.8 | 11.3 | 0.00 | 0.00 | 0.00 | 80 | 1009.9 |
| 20260509093010 | 1 | 173 | 1.6 | 8.0 | 0.00 | 0.00 | 0.00 | 80 | 1009.9 |
| 20260509091514 | 1 | 173 | 3.2 | 11.3 | 0.00 | 0.00 | 0.00 | 80 | 1010.0 |
| 20260509090020 | 1 | 163 | 4.8 | 9.7 | 0.00 | 0.00 | 0.00 | 80 | 1010.2 |
| 20260509084530 | 2 | 156 | 0.0 | 11.3 | 0.00 | 0.00 | 0.00 | 80 | 1010.5 |
| 20260509083011 | 1 | 178 | 6.4 | 14.5 | 0.00 | 0.00 | 0.00 | 81 | 1010.5 |
| 20260509081510 | 1 | 180 | 6.4 | 9.7 | 0.00 | 0.00 | 0.00 | 82 | 1010.7 |
| 20260509080018 | 1 | 173 | 3.2 | 9.7 | 0.00 | 0.00 | 0.00 | 82 | 1010.8 |
| 20260509074526 | 1 | 169 | 3.2 | 8.0 | 0.00 | 0.00 | 0.00 | 82 | 1010.8 |
| 20260509073024 | 1 | 167 | 3.2 | 8.0 | 0.00 | 0.00 | 0.00 | 83 | 1010.9 |
| 20260509071510 | 1 | 184 | 3.2 | 9.7 | 0.00 | 0.00 | 0.00 | 84 | 1010.9 |
| 20260509070015 | 1 | 165 | 1.6 | 6.4 | 0.00 | 0.00 | 0.00 | 84 | 1010.9 |